Terminal Aerodrome Forecast
Issued by NWS

Home | Current Version | Previous Version | Text Only | Print | Product List | Glossary On
Versions: 1 2 3 4 5 6 7 8 9 10 11 12 13 14 15 16 17 18
000
FTUS41 KCAR 272320
TAFHUL
TAF
KHUL 272320Z 2800/2824 03015KT P6SM OVC040
      TEMPO 2802/2806 BKN025
     FM280600 03011KT P6SM BKN015
     FM281300 36013KT P6SM BKN025
     FM281800 34017G24KT P6SM OVC050=

USA.gov is the U.S. government's official web portal to all federal, state and local government web resources and services.